Lake Fork, Illinois
Current Conditions -  °F | °C
As of 10:35 AM on Saturday 25 Oct 2014 (Local Time) from KAAA Reporting Station
Haze Haze  
Wind Chill: 20°   Ceiling: Unl
Heat Index: 20°   Visibility: 5mi
Dew Point: 15°   Wind: 3mph
Humidity: 75%   Direction: 250°WSW
Pressure: 29.99"   Gusts: NA
Location:  39.97°N, 89.35°W
Report Text: KAAA 251535Z AUTO 25003KT 5SM HZ CLR 20/15 A2999 RMK AO2 T01960151
Loading
Personal Weather Stations






























Interactive Weather Map
Tropical Storm Tracking
New forecast layout! Learn more

10-Day Weather Forecast

Advertisements
Track Severe Weather on mobile